METAR、SPECI、TAF(飛行場実況・予報)


■ METAR、SPECI(飛行場実況)

METAR RJOY 270200Z VRB02KT 9999 VCSH FEW005 BKN030 22/20 Q1004 RMK 1ST005 7CU030 A2967
METAR RJOY 270300Z 02003KT 320V080 9999 FEW003 SCT015 BKN025 23/21 Q1004 RMK 1ST003 3CU015 6CU025 A2966
METAR RJOY 270400Z VRB02KT 9999 FEW008 SCT015 BKN025 24/21 Q1003 RMK 1ST008 3CU015 6CU025 A2963
METAR RJOY 270500Z VRB03KT 9999 FEW008 SCT020 BKN/// 26/21 Q1003 RMK 1ST008 3CU020 A2963
METAR RJOY 270600Z 31004KT 250V020 9999 FEW030 SCT060 BKN/// 27/22 Q1002 RMK 1CU030 3SC060 A2961
METAR RJOY 270700Z 30006KT 250V360 9999 FEW030 SCT060 28/22 Q1002 RMK 1CU030 3SC060 A2960
METAR RJOY 270800Z 28009KT 9999 FEW015 SCT030 BKN060 28/22 Q1002 RMK 1CU015 3CU030 5SC060 A2961
METAR RJOY 270900Z 28005KT 9999 FEW020 SCT040 BKN070 27/22 Q1002 RMK 1CU020 3CU040 6AC070 A2960
METAR RJOY 271000Z 26003KT 220V310 9999 FEW020 BKN035 BKN120 26/22 Q1003 RMK 1CU020 5CU035 7AC120 A2962
METAR RJOY 272300Z 10003KT 9999 -SHRA FEW008 SCT015 BKN045 23/22 Q1002 RMK 1ST008 3CU015 7CU045 A2960
METAR RJOY 280000Z VRB01KT 9999 -SHRA FEW008 SCT015 BKN035 23/21 Q1001 RMK 1ST008 3CU015 7CU035 A2958
METAR RJOY 280100Z 05004KT 9999 -SHRA FEW005 SCT015 BKN035 22/21 Q1000 RMK 1ST005 3CU015 7CU035 A2954
METAR RJOY 280200Z 03003KT 320V130 3500 +SHRA BR FEW003 SCT015 BKN030 22/21 Q1000 RMK 1ST003 4CU015 7CU030 A2954
METAR RJOY 280300Z 36004KT 320V030 4000 SHRA BR FEW002 SCT010 FEW020CB BKN030 22/21 Q0998 RMK 1ST002 4CU010 2CB020 7CU030 A2948 CB 15KM W-NW MOV NE
METAR RJOY 280400Z 33004KT 270V030 3000 SHRA BR FEW002 SCT005 BKN015 21/20 Q0997 RMK 1ST002 4ST005 6CU015 A2946
SPECI RJOY 280447Z 35009KT 3000 SHRA BR FEW002 BKN005 BKN015 20/19 Q0996 RMK 1ST002 5ST005 7CU015 A2943
METAR RJOY 280500Z 01011KT 3500 SHRA BR FEW002 BKN005 BKN015 19/19 Q0996 RMK 1ST002 5ST005 7CU015 A2941
SPECI RJOY 280543Z 02009KT 3500 SHRA BR FEW002 SCT005 BKN020 19/18 Q0994 RMK 1ST002 4ST005 6CU020 A2936 P/FR
METAR RJOY 280600Z 35009KT 3500 SHRA BR FEW002 SCT005 BKN015 FEW020CB 19/18 Q0993 RMK 1ST002 3ST005 5CU015 1CB020 A2935 CB 25KM SW MOV NE P/FR
SPECI RJOY 280628Z 35014KT 2000 +SHRA BR FEW002 SCT005 BKN015 FEW020CB 17/17 Q0994 RMK 1ST002 3ST005 5CU015 1CB020 A2937 CB 20KM SW MOV NE P/FR
METAR RJOY 280700Z 35012KT 2000 +SHRA BR FEW002 SCT005 BKN015 FEW020CB 16/16 Q0994 RMK 1ST002 3ST005 5CU015 1CB020 A2938 CB 20KM S MOV NE
SPECI RJOY 280726Z 03008KT 350V060 3000 SHRA BR FEW002 SCT005 BKN020 16/16 Q0994 RMK 1ST002 3ST005 5CU020 A2936
METAR RJOY 280800Z 25006KT 160V270 5000 SHRA BR FEW005 SCT015 BKN025 17/16 Q0995 RMK 1ST005 3CU015 5CU025 A2940 P/RR
METAR RJOY 280900Z 31013KT 6000 -SHRA BR FEW003 SCT007 BKN015 16/16 Q0997 RMK 1ST003 3ST007 5CU015 A2945 P/RR
SPECI RJOY 280914Z 33009KT 4000 -SHRA BR FEW003 SCT007 BKN015 16/16 Q0998 RMK 1ST003 3ST007 5CU015 A2947 P/RR
METAR RJOY 281000Z 31008KT 5000 BR FEW003 SCT007 BKN025 16/15 Q0999 RMK 1ST003 3ST007 5CU025 A2952 P/RR
METAR RJOY 282300Z 34006KT 290V020 9999 FEW030 BKN045 18/09 Q1011 RMK 1CU030 7SC045 A2987
METAR RJOY 290000Z 35006KT 280V050 9999 FEW030 BKN040 18/10 Q1011 RMK 1CU030 7SC040 A2987
METAR RJOY 290100Z 34008KT 290V050 9999 FEW030 BKN040 20/10 Q1012 RMK 1CU030 5SC040 A2989
METAR RJOY 290200Z 02009KT 330V060 9999 FEW030 21/11 Q1011 RMK 1CU030 A2987
METAR RJOY 290300Z VRB05KT 9999 FEW025 22/12 Q1011 RMK 1CU025 A2987
METAR RJOY 290400Z VRB04KT 9999 FEW025 23/12 Q1012 RMK 1CU025 A2988
METAR RJOY 290500Z 28015KT 9999 FEW025 24/12 Q1012 RMK 1CU025 A2989
METAR RJOY 290600Z 26009KT 9999 FEW025 24/12 Q1012 RMK 1CU025 A2990
METAR RJOY 290700Z 30007KT 260V350 9999 FEW035 24/12 Q1011 RMK 1CU035 A2987
METAR RJOY 290800Z 01006KT 310V120 9999 FEW035 25/10 Q1011 RMK 1CU035 A2987
METAR RJOY 290900Z 34007KT 310V020 9999 FEW035 24/09 Q1012 RMK 1CU035 A2988
METAR RJOY 291000Z 36007KT 320V040 9999 FEW035 BKN/// 23/10 Q1012 RMK 1CU035 A2990
METAR RJOY 292300Z VRB02KT 9999 FEW070 BKN/// 20/13 Q1014 RMK 1AC070 A2997
METAR RJOY 300000Z VRB01KT 9999 FEW040 BKN/// 22/12 Q1014 RMK 1CU040 A2997
METAR RJOY 300100Z VRB01KT 9999 FEW030 BKN/// 25/14 Q1014 RMK 1CU030 A2996
METAR RJOY 300200Z VRB02KT 9999 FEW030 BKN/// 26/11 Q1013 RMK 1CU030 A2992
METAR RJOY 300300Z 27006KT 190V320 9999 FEW030 BKN/// 27/09 Q1013 RMK 1CU030 A2992
METAR RJOY 300400Z 27010KT 9999 FEW030 BKN140 BKN/// 26/11 Q1012 RMK 1CU030 5AC140 A2991
METAR RJOY 300500Z 25007KT 210V270 9999 FEW030 BKN120 24/12 Q1012 RMK 1CU030 7AC120 A2991
METAR RJOY 300600Z 30006KT 260V340 9999 FEW030 BKN120 BKN140 25/11 Q1012 RMK 1CU030 5AC120 7AC140 A2988
METAR RJOY 300700Z 29007KT 9999 FEW030 SCT120 BKN140 24/13 Q1011 RMK 1CU030 4AC120 6AC140 A2987
METAR RJOY 300800Z 28007KT 240V310 9999 FEW030 SCT120 BKN140 23/13 Q1011 RMK 1CU030 3AC120 6AC140 A2987
METAR RJOY 300900Z 30005KT 9999 -RA FEW030 SCT110 BKN130 23/13 Q1011 RMK 1CU030 4AC110 6AC130 A2987
METAR RJOY 301000Z 29009KT 9999 FEW030 SCT050 BKN110 22/16 Q1012 RMK 1CU030 4SC050 6AC110 A2991

■ TAF(飛行場予報)


				

お知らせ

新着情報

  • 太陽光発電量推算
  • 気象予報士試験過去問・講座
  • Yahoo Weather shop
  • メルカリ Weather shop

ご案内